Latest Weather Observations for King Island Airport

IDT60801

Issued at 9:01 am EST Wednesday 22 April 2015 (issued every 30 minutes, with the page automatically refreshed every 10 minutes)

About weather observations | Map of weather stations | Latest weather observations for TAS | Other Formats
Station Details ID: 098017 Name: KING ISLAND AIRPORT Lat: -39.88 Lon: 143.88 Height: 37.0 m
Data from the previous 72 hours. | See also: Recent months at King Island Airport
Date/Time
EST
Temp
°C
App
Temp
°C
Dew
Point
Rel
Hum
%
Delta-T
°C
Wind Press
QNH
hPa
Press
MSL
hPa
Rain
since 9 am
mm
Dir
 
Spd
km/h
Gust
km/h
Spd
kts
Gust
kts
22/09:00am 14.1 12.1 11.4 84 1.4 ESE 13 15 7 8 1028.9 1028.9 0.0
22/08:30am 12.4 10.3 11.3 93 0.6 ESE 13 15 7 8 1029.0 1029.0 0.0
22/08:00am 10.5 8.9 10.2 98 0.2 SE 9 11 5 6 1029.1 1029.1 0.0
22/07:30am 8.7 5.9 8.4 98 0.1 SE 13 15 7 8 1028.9 1028.9 0.0
22/07:00am 9.7 8.0 9.7 100 0.0 SSE 9 13 5 7 1028.9 1028.9 0.0
22/06:46am 7.5 5.2 7.4 99 0.0 SE 9 11 5 6 1028.8 1028.8 0.0
22/06:30am 8.8 7.2 8.8 100 0.0 SE 7 9 4 5 1028.8 1028.8 0.0
22/06:13am 6.7 4.6 6.6 99 0.0 ESE 7 9 4 5 1028.7 1028.7 0.0
22/06:00am 6.3 3.7 6.0 98 0.1 ESE 9 9 5 5 1028.7 1028.7 0.0
22/05:30am 7.3 5.3 7.0 98 0.1 ESE 7 9 4 5 1028.7 1028.7 0.0
22/05:14am 8.3 6.5 8.0 98 0.1 SE 7 9 4 5 1028.7 1028.7 0.0
22/05:00am 9.8 9.4 9.7 99 0.0 SSE 2 9 1 5 1028.7 1028.7 0.0
22/04:30am 9.7 7.9 9.6 99 0.0 SSE 9 11 5 6 1028.5 1028.5 0.0
22/04:00am 8.4 6.3 8.3 99 0.0 SE 9 9 5 5 1028.6 1028.6 0.0
22/03:57am 8.2 6.1 8.1 99 0.0 ESE 9 9 5 5 1028.6 1028.6 0.0
22/03:30am 7.7 5.8 7.4 98 0.1 SE 7 7 4 4 1028.6 1028.6 0.0
22/03:12am 8.1 6.4 7.7 97 0.2 SE 6 7 3 4 1028.8 1028.8 0.0
22/03:06am 8.8 7.3 8.5 98 0.1 SE 6 7 3 4 1029.0 1029.0 0.0
22/03:00am 9.3 7.9 9.0 98 0.1 SE 6 9 3 5 1029.1 1029.1 0.0
22/02:30am 10.4 9.3 10.1 98 0.2 SSE 6 9 3 5 1029.5 1029.5 0.0
22/02:00am 8.9 7.4 8.6 98 0.1 SE 6 7 3 4 1029.7 1029.7 0.0
22/01:42am 9.2 7.6 8.7 97 0.2 SE 7 11 4 6 1029.8 1029.8 0.0
22/01:30am 10.7 9.2 10.4 98 0.2 SSE 9 11 5 6 1029.9 1029.9 0.0
22/01:21am 10.4 9.1 10.1 98 0.2 SSE 7 11 4 6 1030.0 1030.0 0.0
22/01:01am 8.7 6.6 8.1 96 0.3 SSE 9 9 5 5 1030.0 1030.0 0.0
22/01:00am 9.0 6.9 8.4 96 0.3 SSE 9 11 5 6 1030.0 1030.0 0.0
22/12:30am 8.9 7.2 8.5 97 0.2 ESE 7 7 4 4 1030.2 1030.2 0.0
22/12:21am 8.5 6.7 7.9 96 0.3 ESE 7 7 4 4 1030.3 1030.3 0.0
22/12:00am 9.2 7.7 8.6 96 0.3 SE 6 7 3 4 1030.4 1030.4 0.0
 
Date/Time
EST
Temp
°C
App
Temp
°C
Dew
Point
Rel
Hum
%
Delta-T
°C
Wind Press
QNH
hPa
Press
MSL
hPa
Rain
since 9 am
mm
Dir
 
Spd
km/h
Gust
km/h
Spd
kts
Gust
kts
21/11:38pm 9.0 8.2 8.2 95 0.4 SE 2 7 1 4 1030.7 1030.7 0.0
21/11:30pm 9.6 8.0 8.8 95 0.4 SSE 7 11 4 6 1030.7 1030.7 0.0
21/11:00pm 11.0 9.5 10.4 96 0.3 SE 9 9 5 5 1031.0 1031.0 0.0
21/10:30pm 11.2 9.3 10.4 95 0.4 SE 11 13 6 7 1031.2 1031.2 0.0
21/10:00pm 11.0 9.1 10.4 96 0.3 SSE 11 15 6 8 1031.1 1031.1 0.0
21/09:30pm 10.9 8.9 10.0 94 0.5 SSE 11 13 6 7 1031.5 1031.5 0.0
21/09:00pm 11.5 9.5 10.2 92 0.7 SSW 11 15 6 8 1031.4 1031.4 0.0
21/08:30pm 12.1 10.6 10.7 91 0.7 S 9 11 5 6 1031.5 1031.5 0.0
21/08:00pm 12.7 11.9 11.1 90 0.8 SSE 6 7 3 4 1031.7 1031.7 0.0
21/07:30pm 13.2 12.4 11.1 87 1.1 S 6 9 3 5 1032.0 1032.0 0.0
21/07:00pm 13.1 12.1 11.0 87 1.1 SSE 7 9 4 5 1032.0 1032.0 0.0
21/06:30pm 13.5 12.1 10.9 84 1.4 SSE 9 11 5 6 1032.1 1032.1 0.0
21/06:00pm 13.6 12.2 10.8 83 1.5 SSE 9 15 5 8 1032.0 1032.0 0.0
21/05:30pm 13.9 11.7 10.7 81 1.7 S 13 19 7 10 1031.9 1031.9 0.0
21/05:00pm 14.1 11.3 10.1 77 2.1 SSE 15 22 8 12 1032.1 1032.1 0.0
21/04:30pm 14.2 11.9 10.6 79 1.9 SSE 13 17 7 9 1031.9 1031.9 0.0
21/04:00pm 13.7 11.6 11.0 84 1.4 SSE 13 20 7 11 1032.1 1032.1 0.0
21/03:30pm 14.7 11.5 9.9 73 2.5 S 17 26 9 14 1032.1 1032.1 0.0
21/03:00pm 14.8 11.4 9.2 69 2.8 SSE 17 24 9 13 1032.1 1032.1 0.0
21/02:30pm 14.8 11.1 9.6 71 2.7 S 19 35 10 19 1032.0 1032.0 0.0
21/02:00pm 15.2 11.8 9.1 67 3.1 SSE 17 24 9 13 1032.2 1032.2 0.0
21/01:30pm 15.7 12.1 8.4 62 3.7 S 17 28 9 15 1032.4 1032.4 0.0
21/01:00pm 16.3 12.4 8.8 61 3.8 SSE 19 30 10 16 1032.6 1032.6 0.0
21/12:30pm 15.5 11.8 8.0 61 3.8 SSE 17 28 9 15 1033.1 1033.1 0.0
21/12:00pm 16.2 12.4 8.9 62 3.7 SSE 19 26 10 14 1033.6 1033.6 0.0
21/11:30am 16.6 12.4 8.1 57 4.3 SSE 20 30 11 16 1033.9 1033.9 0.0
21/11:00am 15.1 11.3 7.6 61 3.7 SSE 17 20 9 11 1034.2 1034.2 0.0
21/10:30am 15.4 11.6 7.4 59 4.0 SSE 17 30 9 16 1034.5 1034.5 0.0
21/10:00am 14.5 11.1 7.5 63 3.4 SSE 15 22 8 12 1034.7 1034.7 0.0
21/09:30am 14.4 11.1 7.9 65 3.2 SSE 15 20 8 11 1034.9 1034.9 0.0
21/09:00am 14.1 10.9 6.9 62 3.5 SSE 13 20 7 11 1034.9 1034.9 0.0
21/08:30am 13.6 10.1 7.2 65 3.1 SSE 15 20 8 11 1035.0 1035.0 0.0
21/08:00am 13.3 10.8 8.0 70 2.6 SSE 11 17 6 9 1035.0 1035.0 0.0
21/07:30am 12.0 9.2 7.1 72 2.4 S 11 17 6 9 1034.8 1034.8 0.0
21/07:00am 11.5 8.8 7.4 76 2.0 S 11 17 6 9 1034.7 1034.7 0.0
21/06:30am 11.1 8.5 7.8 80 1.6 SSE 11 13 6 7 1034.8 1034.8 0.0
21/06:00am 10.4 7.9 8.0 85 1.2 SSE 11 15 6 8 1034.8 1034.8 0.0
21/05:30am 10.5 8.3 7.9 84 1.3 SSE 9 11 5 6 1034.7 1034.7 0.0
21/05:00am 10.7 8.1 7.9 83 1.3 SSE 11 13 6 7 1034.5 1034.5 0.0
21/04:30am 10.4 8.2 7.8 84 1.3 S 9 13 5 7 1034.5 1034.5 0.0
21/04:00am 10.6 7.9 7.3 80 1.6 S 11 13 6 7 1034.5 1034.5 0.0
21/03:30am 10.9 8.8 8.1 83 1.4 S 9 11 5 6 1034.7 1034.7 0.0
21/03:00am 10.9 9.4 8.3 84 1.3 S 6 9 3 5 1034.9 1034.9 0.0
21/02:30am 10.8 8.6 8.0 83 1.4 S 9 11 5 6 1035.1 1035.1 0.0
21/02:00am 10.1 7.4 7.3 83 1.3 SSW 11 13 6 7 1035.3 1035.3 0.0
21/01:30am 10.7 8.4 7.6 81 1.5 S 9 11 5 6 1035.5 1035.5 0.0
21/01:00am 10.3 7.9 7.0 80 1.5 S 9 11 5 6 1035.6 1035.6 0.0
21/12:30am 9.7 6.8 6.6 81 1.4 SSE 11 13 6 7 1035.6 1035.6 0.0
21/12:00am 9.9 6.7 6.8 81 1.4 SSE 13 15 7 8 1035.8 1035.8 0.0
 
Date/Time
EST
Temp
°C
App
Temp
°C
Dew
Point
Rel
Hum
%
Delta-T
°C
Wind Press
QNH
hPa
Press
MSL
hPa
Rain
since 9 am
mm
Dir
 
Spd
km/h
Gust
km/h
Spd
kts
Gust
kts
20/11:30pm 9.9 6.7 6.8 81 1.5 SSE 13 15 7 8 1035.9 1035.9 0.0
20/11:00pm 10.2 7.4 6.9 80 1.5 S 11 15 6 8 1036.1 1036.1 0.0
20/10:30pm 10.7 8.0 7.4 80 1.6 S 11 15 6 8 1036.4 1036.4 0.0
20/10:00pm 10.3 7.2 7.4 82 1.4 S 13 15 7 8 1036.5 1036.5 0.0
20/09:30pm 8.3 6.3 6.3 87 0.9 SSE 6 11 3 6 1036.6 1036.6 0.0
20/09:00pm 8.4 7.6 6.4 87 0.9 CALM 0 0 0 0 1036.5 1036.5 0.0
20/08:30pm 9.8 8.0 7.2 84 1.2 SSE 6 9 3 5 1036.6 1036.6 0.0
20/08:00pm 9.6 8.9 7.0 84 1.2 CALM 0 0 0 0 1036.5 1036.5 0.0
20/07:30pm 10.0 7.9 6.5 79 1.6 SSE 7 9 4 5 1036.4 1036.4 0.0
20/07:00pm 11.2 8.8 7.1 76 1.9 S 9 11 5 6 1036.3 1036.3 0.0
20/06:30pm 11.4 8.6 6.9 74 2.1 S 11 15 6 8 1036.2 1036.2 0.0
20/06:00pm 12.2 8.7 7.3 72 2.3 SSW 15 17 8 9 1036.1 1036.1 0.0
20/05:30pm 12.9 8.6 7.1 68 2.8 SSW 19 26 10 14 1036.1 1036.1 0.0
20/05:00pm 13.0 8.0 6.6 65 3.0 SSW 22 30 12 16 1036.1 1036.1 0.0
20/04:30pm 13.6 9.0 6.5 62 3.4 SSW 20 26 11 14 1036.2 1036.2 0.0
20/04:00pm 13.9 9.1 5.5 57 3.9 SSW 20 26 11 14 1036.3 1036.3 0.0
20/03:30pm 14.6 10.4 5.9 56 4.2 SSW 17 26 9 14 1036.4 1036.4 0.0
20/03:00pm 13.8 8.5 4.9 55 4.1 SSW 22 30 12 16 1036.3 1036.3 0.0
20/02:30pm 13.9 8.3 5.5 57 4.0 SW 24 32 13 17 1036.4 1036.4 0.0
20/02:00pm 14.6 9.8 5.7 55 4.2 SSW 20 30 11 16 1036.6 1036.6 0.0
20/01:30pm 14.0 9.3 6.1 59 3.8 SSW 20 32 11 17 1036.8 1036.8 0.0
20/01:00pm 14.7 9.9 5.8 55 4.2 SSW 20 32 11 17 1037.1 1037.1 0.0
20/12:30pm 14.9 10.6 5.4 53 4.5 S 17 30 9 16 1037.3 1037.4 0.0
20/12:00pm 14.3 10.0 5.4 55 4.2 SSW 17 26 9 14 1037.9 1037.9 0.0
20/11:30am 13.6 8.3 5.0 56 4.0 SSW 22 28 12 15 1038.1 1038.1 0.0
20/11:00am 14.1 9.8 5.2 55 4.1 S 17 26 9 14 1038.1 1038.1 0.0
20/10:30am 13.3 10.0 6.2 62 3.4 SSW 13 15 7 8 1038.1 1038.1 0.0
20/10:00am 14.0 10.6 6.1 59 3.7 SSE 13 19 7 10 1038.1 1038.1 0.0
20/09:30am 13.3 10.0 6.6 64 3.2 SSE 13 17 7 9 1038.3 1038.3 0.0
20/09:00am 11.7 10.0 8.4 80 1.6 NE 7 11 4 6 1038.3 1038.3 0.6
20/08:30am 9.3 7.6 7.4 88 0.9 E 6 7 3 4 1038.1 1038.1 0.6
20/08:00am 7.6 5.5 6.7 94 0.4 E 7 9 4 5 1037.9 1037.9 0.6
20/07:30am 6.2 3.8 5.3 94 0.4 ESE 7 9 4 5 1037.5 1037.6 0.6
20/07:00am 6.6 5.6 5.6 93 0.4 CALM 0 0 0 0 1037.4 1037.5 0.6
20/06:30am 7.5 6.6 6.1 91 0.6 CALM 0 0 0 0 1037.2 1037.2 0.6
20/06:00am 7.6 6.7 5.9 89 0.8 CALM 0 6 0 3 1037.2 1037.2 0.6
20/05:30am 5.6 3.9 3.8 88 0.8 S 2 13 1 7 1037.1 1037.1 0.6
20/05:00am 7.1 4.8 4.8 85 1.0 S 6 11 3 6 1036.7 1036.7 0.6
20/04:30am 6.9 4.5 5.2 89 0.8 SSE 7 9 4 5 1036.6 1036.6 0.6
20/04:00am 5.2 3.9 3.9 91 0.5 CALM 0 0 0 0 1036.3 1036.3 0.6
20/03:30am 4.7 2.8 2.9 88 0.7 ESE 2 7 1 4 1036.2 1036.2 0.6
20/03:00am 6.7 4.0 5.7 93 0.4 SE 9 11 5 6 1036.2 1036.2 0.6
20/02:30am 5.2 2.2 4.2 93 0.4 ESE 9 9 5 5 1036.5 1036.5 0.6
20/02:00am 5.1 2.4 3.6 90 0.6 E 7 9 4 5 1036.4 1036.4 0.6
20/01:30am 5.4 1.9 3.3 86 0.9 ENE 11 13 6 7 1036.4 1036.4 0.6
20/01:00am 8.6 5.7 4.8 77 1.7 S 9 11 5 6 1036.2 1036.2 0.6
20/12:30am 8.4 5.7 5.7 83 1.2 S 9 11 5 6 1036.1 1036.1 0.6
20/12:00am 8.7 5.3 5.8 82 1.3 SSW 13 19 7 10 1036.3 1036.3 0.6
 
Date/Time
EST
Temp
°C
App
Temp
°C
Dew
Point
Rel
Hum
%
Delta-T
°C
Wind Press
QNH
hPa
Press
MSL
hPa
Rain
since 9 am
mm
Dir
 
Spd
km/h
Gust
km/h
Spd
kts
Gust
kts
19/11:30pm 6.2 4.7 5.2 93 0.4 E 2 6 1 3 1036.5 1036.5 0.6
19/11:00pm 6.2 4.6 4.5 89 0.7 E 2 6 1 3 1036.5 1036.5 0.6
19/10:30pm 7.1 4.5 4.1 81 1.3 SE 7 9 4 5 1036.4 1036.4 0.6
19/10:00pm 9.6 5.9 4.6 71 2.2 S 13 19 7 10 1036.3 1036.3 0.6
19/09:30pm 8.4 6.2 5.3 81 1.4 S 6 15 3 8 1036.1 1036.1 0.6
19/09:00pm 9.3 6.4 6.7 84 1.2 SSE 11 17 6 9 1035.9 1035.9 0.6
19/08:30pm 10.5 5.7 5.5 71 2.3 SW 20 30 11 16 1035.5 1035.5 0.6
19/08:00pm 10.3 5.9 4.7 68 2.5 SSW 17 24 9 13 1035.1 1035.1 0.6
19/07:30pm 10.1 4.7 4.5 68 2.5 SSW 22 30 12 16 1034.7 1034.7 0.6
19/07:00pm 10.5 5.9 3.8 63 2.9 SSW 17 20 9 11 1034.3 1034.3 0.6
19/06:30pm 10.2 5.9 3.0 61 3.1 SSW 15 22 8 12 1033.7 1033.7 0.6
19/06:00pm 10.4 5.0 2.7 59 3.3 SSW 20 28 11 15 1033.3 1033.3 0.6
19/05:30pm 10.8 5.7 2.9 58 3.4 SSW 19 30 10 16 1032.9 1032.9 0.6
19/05:00pm 11.4 5.3 2.9 56 3.7 S 24 33 13 18 1032.6 1032.6 0.6
19/04:30pm 11.5 6.1 1.5 50 4.2 S 19 33 10 18 1032.4 1032.4 0.6
19/04:00pm 12.2 5.4 0.9 46 4.7 SSW 26 39 14 21 1032.2 1032.2 0.6
19/03:30pm 12.4 5.2 0.5 44 5.0 S 28 41 15 22 1031.8 1031.8 0.6
19/03:00pm 12.9 4.9 1.9 47 4.7 SSW 33 46 18 25 1031.5 1031.5 0.6
19/02:30pm 12.0 5.3 1.6 49 4.4 S 26 39 14 21 1031.1 1031.1 0.6
19/02:01pm 13.3 6.0 2.2 47 4.8 SSW 30 48 16 26 1030.8 1030.8 0.6
19/02:00pm 13.0 5.2 1.7 46 4.8 SSW 32 48 17 26 1030.8 1030.8 0.6
19/01:33pm 12.9 5.4 1.0 44 5.0 S 30 48 16 26 1030.6 1030.6 0.6
19/01:30pm 13.3 5.4 1.3 44 5.1 S 32 48 17 26 1030.6 1030.6 0.6
19/01:00pm 13.0 5.1 2.0 47 4.7 SSW 33 50 18 27 1030.4 1030.4 0.6
19/12:41pm 12.8 4.9 2.4 49 4.5 SSW 33 52 18 28 1030.2 1030.2 0.6
19/12:30pm 13.0 5.9 3.4 52 4.3 SSW 30 41 16 22 1030.2 1030.2 0.6
19/12:00pm 12.8 5.1 3.5 53 4.1 SSW 33 46 18 25 1030.0 1030.0 0.6
19/11:30am 12.3 4.7 3.0 53 4.1 SSW 32 50 17 27 1029.8 1029.8 0.4
19/11:00am 11.7 5.5 6.0 68 2.6 S 28 48 15 26 1029.3 1029.3 0.4
19/10:51am 11.6 4.8 5.3 65 2.9 SSW 30 48 16 26 1029.1 1029.1 0.4
19/10:30am 11.2 4.1 5.3 67 2.7 SSW 32 48 17 26 1028.8 1028.8 0.4
19/10:10am 9.6 2.5 5.4 75 1.9 SSW 32 50 17 27 1028.5 1028.5 0.4
19/10:00am 10.4 3.4 3.9 64 2.9 SSW 30 43 16 23 1028.5 1028.5 0.0
19/09:30am 11.8 5.9 3.8 58 3.6 S 24 37 13 20 1027.8 1027.8 0.0

Other Formats:

Comma delimited format used in spreadsheet applications
http://www.bom.gov.au/fwo/IDT60801/IDT60801.94850.axf

JavaScript Object Notation format (JSON) in row-major order
http://www.bom.gov.au/fwo/IDT60801/IDT60801.94850.json